createdAt,value
2022-11-16T00:01:43.610Z,57.90
2022-11-16T00:04:12.543Z,58.90
2022-11-16T00:06:40.969Z,59.50
2022-11-16T00:09:24.561Z,59.30
2022-11-16T00:11:55.957Z,49.30
2022-11-16T00:14:27.224Z,54.40
2022-11-16T00:16:55.799Z,54.50
2022-11-16T00:19:24.826Z,52.80
2022-11-16T00:21:53.957Z,51.30
2022-11-16T00:24:23.728Z,58.40
2022-11-16T00:26:56.364Z,52.80
2022-11-16T00:29:26.990Z,45.80
2022-11-16T00:31:56.011Z,51.00
2022-11-16T00:34:24.785Z,45.70
2022-11-16T00:36:52.876Z,48.80
2022-11-16T00:39:21.176Z,47.80
2022-11-16T00:41:49.841Z,52.40
2022-11-16T00:44:19.031Z,54.40
2022-11-16T00:46:47.172Z,47.60
2022-11-16T00:49:15.572Z,51.10
2022-11-16T00:51:43.743Z,57.80
2022-11-16T00:54:12.301Z,52.50
2022-11-16T00:56:40.920Z,48.80
2022-11-16T00:59:09.023Z,48.40
2022-11-16T01:01:37.972Z,57.80
2022-11-16T01:04:07.711Z,58.30
2022-11-16T01:06:37.144Z,52.30
2022-11-16T01:09:05.321Z,50.90
2022-11-16T01:11:51.957Z,60.20
2022-11-16T01:14:20.037Z,56.60
2022-11-16T01:16:50.368Z,57.80
2022-11-16T01:19:18.534Z,60.60
2022-11-16T01:21:46.471Z,59.00
2022-11-16T01:24:14.696Z,58.00
2022-11-16T01:26:42.729Z,60.70
2022-11-16T01:29:10.827Z,59.80
2022-11-16T01:31:42.178Z,60.70
2022-11-16T01:34:10.080Z,59.40
2022-11-16T01:36:38.216Z,67.20
2022-11-16T01:39:06.854Z,64.80
2022-11-16T01:41:44.514Z,66.40
2022-11-16T01:44:15.490Z,67.30
2022-11-16T01:46:52.926Z,68.20
2022-11-16T01:49:25.853Z,66.40
2022-11-16T01:52:01.858Z,68.80
2022-11-16T01:54:37.659Z,66.50
2022-11-16T01:57:08.759Z,58.90
2022-11-16T01:59:41.146Z,70.20
2022-11-16T02:02:16.273Z,70.00
2022-11-16T02:04:48.227Z,69.80
2022-11-16T02:07:54.768Z,62.90
2022-11-16T02:10:59.077Z,70.80
2022-11-16T02:14:01.325Z,79.00
2022-11-16T02:16:48.437Z,79.10
2022-11-16T02:19:38.507Z,63.10
2022-11-16T02:22:34.215Z,75.90
2022-11-16T02:25:40.752Z,73.80
2022-11-16T02:28:28.581Z,72.00
2022-11-16T02:31:00.412Z,66.70
2022-11-16T02:33:34.426Z,72.80
2022-11-16T02:36:07.888Z,69.70
2022-11-16T02:38:39.990Z,81.30
2022-11-16T02:41:15.608Z,64.10
2022-11-16T02:43:48.967Z,61.50
2022-11-16T02:46:27.915Z,58.90
2022-11-16T02:49:00.850Z,67.90
2022-11-16T02:51:30.645Z,68.60
2022-11-16T02:54:09.298Z,72.90
2022-11-16T02:56:55.906Z,65.00
2022-11-16T02:59:36.571Z,65.10
2022-11-16T03:02:30.391Z,36.30
2022-11-16T03:05:12.835Z,51.10
2022-11-16T03:07:52.526Z,66.90
2022-11-16T03:10:40.933Z,56.80
2022-11-16T03:13:11.903Z,54.50
2022-11-16T03:15:42.802Z,46.90
2022-11-16T03:18:15.742Z,59.10
2022-11-16T03:20:44.597Z,57.50
2022-11-16T03:23:14.137Z,49.70
2022-11-16T03:25:57.370Z,50.80
2022-11-16T03:28:32.683Z,45.70
2022-11-16T03:31:07.890Z,44.80
2022-11-16T03:33:44.131Z,48.50
2022-11-16T03:36:31.275Z,49.10
2022-11-16T03:39:03.369Z,47.00
2022-11-16T03:41:35.523Z,49.20
2022-11-16T03:44:04.981Z,38.20
2022-11-16T03:46:32.912Z,42.00
2022-11-16T03:49:01.251Z,49.10
2022-11-16T03:51:32.581Z,38.90
2022-11-16T03:54:00.852Z,48.50
2022-11-16T03:56:29.213Z,42.60
2022-11-16T03:58:57.883Z,49.30
2022-11-16T04:01:25.837Z,60.80
2022-11-16T04:03:54.325Z,38.20
2022-11-16T04:06:41.513Z,52.40
2022-11-16T04:09:29.879Z,49.10
2022-11-16T04:12:16.583Z,51.60
2022-11-16T04:15:03.770Z,57.90
2022-11-16T04:17:51.314Z,60.40
2022-11-16T04:20:38.057Z,43.90
2022-11-16T04:23:34.070Z,56.70
2022-11-16T04:26:06.537Z,58.10
2022-11-16T04:28:36.445Z,57.90
2022-11-16T04:31:24.968Z,55.90
2022-11-16T04:34:17.483Z,61.40
2022-11-16T04:37:07.652Z,48.80
2022-11-16T04:39:36.432Z,50.20
2022-11-16T04:42:14.878Z,44.10
2022-11-16T04:45:02.636Z,39.40
2022-11-16T04:47:35.724Z,41.00
2022-11-16T04:50:04.463Z,46.10
2022-11-16T04:52:32.673Z,45.70
2022-11-16T04:55:00.688Z,44.70
2022-11-16T04:57:28.606Z,39.60
2022-11-16T04:59:56.906Z,36.70
2022-11-16T05:02:25.537Z,30.10
2022-11-16T05:04:57.156Z,37.50
2022-11-16T05:07:25.721Z,36.40
2022-11-16T05:09:57.591Z,36.80
2022-11-16T05:12:28.162Z,33.80
2022-11-16T05:14:59.221Z,34.80
2022-11-16T05:17:28.725Z,32.20
2022-11-16T05:20:16.505Z,28.70
2022-11-16T05:22:58.432Z,27.50
2022-11-16T05:25:35.287Z,31.30
2022-11-16T05:28:05.462Z,32.10
2022-11-16T05:30:34.607Z,32.40
2022-11-16T05:33:03.668Z,25.80
2022-11-16T05:35:33.435Z,25.80
2022-11-16T05:38:02.799Z,26.90
2022-11-16T05:40:33.313Z,25.30
2022-11-16T05:43:01.877Z,24.80
2022-11-16T05:45:32.195Z,25.10
2022-11-16T05:48:01.692Z,26.80
2022-11-16T05:50:38.549Z,22.70
2022-11-16T05:53:15.068Z,21.10
2022-11-16T05:55:43.035Z,19.80
2022-11-16T05:58:11.086Z,24.50
2022-11-16T06:00:40.063Z,21.50
2022-11-16T06:03:09.100Z,22.60
2022-11-16T06:05:40.513Z,30.60
2022-11-16T06:08:09.294Z,26.50
2022-11-16T06:10:37.260Z,21.30
2022-11-16T06:13:05.560Z,29.60
2022-11-16T06:15:38.296Z,32.10
2022-11-16T06:18:07.853Z,25.80
2022-11-16T06:20:38.661Z,29.60
2022-11-16T06:23:08.878Z,25.20
2022-11-16T06:25:39.236Z,28.40
2022-11-16T06:28:08.503Z,32.70
2022-11-16T06:30:38.363Z,33.10
2022-11-16T06:33:08.805Z,39.90
2022-11-16T06:35:37.588Z,25.10
2022-11-16T06:38:06.229Z,33.70
2022-11-16T06:40:35.209Z,35.40
2022-11-16T06:43:03.862Z,29.50
2022-11-16T06:45:32.018Z,28.10
2022-11-16T06:48:01.266Z,29.40
2022-11-16T06:50:29.358Z,31.40
2022-11-16T06:53:00.797Z,41.00
2022-11-16T06:55:29.911Z,29.00
2022-11-16T06:57:57.917Z,30.70
2022-11-16T07:00:26.202Z,37.30
2022-11-16T07:02:54.407Z,28.10
2022-11-16T07:05:25.445Z,35.70
2022-11-16T07:07:57.895Z,33.50
2022-11-16T07:10:26.364Z,35.70
2022-11-16T07:12:54.948Z,24.90
2022-11-16T07:15:24.602Z,31.40
2022-11-16T07:17:53.479Z,29.10
2022-11-16T07:20:21.519Z,39.30
2022-11-16T07:22:49.427Z,36.40
2022-11-16T07:25:17.820Z,31.00
2022-11-16T07:27:46.088Z,27.30
2022-11-16T07:30:14.987Z,28.50
2022-11-16T07:32:58.211Z,35.50
2022-11-16T07:35:45.112Z,31.70
2022-11-16T07:38:17.861Z,32.30
2022-11-16T07:40:46.647Z,31.80
2022-11-16T07:43:18.433Z,28.40
2022-11-16T07:49:00.094Z,32.00
2022-11-16T07:51:47.133Z,22.80
2022-11-16T07:54:35.230Z,32.20
2022-11-16T07:57:04.325Z,33.10
2022-11-16T07:59:32.229Z,19.20
2022-11-16T08:02:00.907Z,24.80
2022-11-16T08:04:29.124Z,23.80
2022-11-16T08:06:57.275Z,52.70
2022-11-16T08:09:25.514Z,27.40
2022-11-16T08:11:53.579Z,26.20
2022-11-16T08:14:21.806Z,18.70
2022-11-16T08:16:50.530Z,23.30
2022-11-16T08:19:18.871Z,26.50
2022-11-16T08:21:47.244Z,33.20
2022-11-16T08:24:15.618Z,34.80
2022-11-16T08:26:44.439Z,22.00
2022-11-16T08:29:15.984Z,23.90
2022-11-16T08:31:48.389Z,22.70
2022-11-16T08:34:19.131Z,20.50
2022-11-16T08:36:50.310Z,23.90
2022-11-16T08:39:19.390Z,27.50
2022-11-16T08:41:47.321Z,23.30
2022-11-16T08:44:15.925Z,20.30
2022-11-16T08:46:46.557Z,23.10
2022-11-16T08:49:37.431Z,23.40
2022-11-16T08:52:05.750Z,28.10
2022-11-16T08:54:33.950Z,20.20
2022-11-16T08:57:02.393Z,27.10
2022-11-16T08:59:31.480Z,25.50
2022-11-16T09:02:03.435Z,23.10
2022-11-16T09:04:36.686Z,21.50
2022-11-16T09:07:05.411Z,18.60
2022-11-16T09:09:33.394Z,24.20
2022-11-16T09:12:01.264Z,18.30
2022-11-16T09:14:30.816Z,21.30
2022-11-16T09:16:59.491Z,17.40
2022-11-16T09:19:27.619Z,22.20
2022-11-16T09:21:55.864Z,20.80
2022-11-16T09:24:24.109Z,18.50
2022-11-16T09:26:52.328Z,19.90
2022-11-16T09:29:21.142Z,23.80
2022-11-16T09:31:50.396Z,25.70
2022-11-16T09:34:19.249Z,19.50
2022-11-16T09:36:47.365Z,18.00
2022-11-16T09:39:32.212Z,17.80
2022-11-16T09:42:37.675Z,19.30
2022-11-16T09:45:43.015Z,17.70
2022-11-16T09:48:14.288Z,17.30
2022-11-16T09:50:51.013Z,15.40
2022-11-16T09:53:27.117Z,13.50
2022-11-16T09:56:00.144Z,17.80
2022-11-16T09:58:34.893Z,13.30
2022-11-16T10:01:32.577Z,13.30
2022-11-16T10:04:16.179Z,14.00
2022-11-16T10:07:01.110Z,14.30
2022-11-16T10:09:30.672Z,13.30
2022-11-16T10:12:27.461Z,14.30
2022-11-16T10:15:24.741Z,17.30
2022-11-16T10:18:04.712Z,10.60
2022-11-16T10:20:54.826Z,11.10
2022-11-16T10:23:39.434Z,10.20
2022-11-16T10:26:23.100Z,16.90
2022-11-16T10:29:11.118Z,14.10
2022-11-16T10:32:09.480Z,13.90
2022-11-16T10:34:53.275Z,10.90
2022-11-16T10:37:22.633Z,14.80
2022-11-16T10:39:53.356Z,13.40
2022-11-16T10:42:29.262Z,16.10
2022-11-16T10:45:06.658Z,13.10
2022-11-16T10:47:45.055Z,15.70
2022-11-16T10:50:38.472Z,14.40
2022-11-16T10:53:11.891Z,11.70
2022-11-16T10:55:40.201Z,12.60
2022-11-16T10:58:08.267Z,14.80
2022-11-16T11:00:51.843Z,9.40
2022-11-16T11:03:33.731Z,17.10
2022-11-16T11:06:02.970Z,13.50
2022-11-16T11:08:31.839Z,17.60
2022-11-16T11:11:22.606Z,11.10
2022-11-16T11:14:15.595Z,15.20
2022-11-16T11:16:43.864Z,13.60
2022-11-16T11:19:24.684Z,18.50
2022-11-16T11:22:00.804Z,15.70
2022-11-16T11:24:43.950Z,12.80
2022-11-16T11:27:13.666Z,14.30
2022-11-16T11:29:43.161Z,10.70
2022-11-16T11:32:23.549Z,10.90
2022-11-16T11:34:58.070Z,17.00
2022-11-16T11:37:39.783Z,14.40
2022-11-16T11:40:23.318Z,12.00
2022-11-16T11:43:04.338Z,12.20
2022-11-16T11:45:42.981Z,13.50
2022-11-16T11:48:50.016Z,13.10
2022-11-16T11:51:50.710Z,13.30
2022-11-16T11:54:31.016Z,11.80
2022-11-16T11:57:03.751Z,12.00
2022-11-16T11:59:32.317Z,8.60
2022-11-16T12:02:03.410Z,16.90
2022-11-16T12:04:46.524Z,11.20
2022-11-16T12:07:40.528Z,10.00
2022-11-16T12:10:12.010Z,10.30
2022-11-16T12:13:24.166Z,11.80
2022-11-16T12:16:04.943Z,11.40
2022-11-16T12:19:03.180Z,9.40
2022-11-16T12:21:43.799Z,8.90
2022-11-16T12:24:17.886Z,10.60
2022-11-16T12:27:02.001Z,5.90
2022-11-16T12:30:06.931Z,10.80
2022-11-16T12:32:59.982Z,8.20
2022-11-16T12:35:39.479Z,9.80
2022-11-16T12:38:29.545Z,11.20
2022-11-16T12:41:34.947Z,8.80
2022-11-16T12:44:08.904Z,8.20
2022-11-16T12:47:24.602Z,11.70
2022-11-16T12:50:03.377Z,9.10
2022-11-16T12:52:49.785Z,11.30
2022-11-16T12:55:27.221Z,9.10
2022-11-16T12:58:02.900Z,8.90
2022-11-16T13:01:02.596Z,11.00
2022-11-16T13:03:35.527Z,11.20
2022-11-16T13:06:09.614Z,10.40
2022-11-16T13:08:46.009Z,8.60
2022-11-16T13:11:17.470Z,9.10
2022-11-16T13:13:53.028Z,8.90
2022-11-16T13:16:24.695Z,9.00
2022-11-16T13:18:54.132Z,11.30
2022-11-16T13:21:32.284Z,10.90
2022-11-16T13:24:14.078Z,12.50
2022-11-16T13:26:56.084Z,11.40
2022-11-16T13:29:29.570Z,9.40
2022-11-16T13:32:25.109Z,9.20
2022-11-16T13:34:57.574Z,10.50
2022-11-16T13:37:38.742Z,10.10
2022-11-16T13:40:06.939Z,10.40
2022-11-16T13:42:58.022Z,13.30
2022-11-16T13:45:37.715Z,12.90
2022-11-16T13:48:35.137Z,10.70
2022-11-16T13:51:08.228Z,12.10
2022-11-16T13:54:38.039Z,11.80
2022-11-16T13:56:48.381Z,12.80
2022-11-16T13:59:22.913Z,17.30
2022-11-16T14:01:57.280Z,19.70
2022-11-16T14:04:41.142Z,19.20
2022-11-16T14:07:36.123Z,13.00
2022-11-16T14:10:06.186Z,12.40
2022-11-16T14:12:54.595Z,8.10
2022-11-16T14:15:37.890Z,9.00
2022-11-16T14:18:12.071Z,9.20
2022-11-16T14:20:58.711Z,15.10
2022-11-16T14:23:54.583Z,10.20
2022-11-16T14:26:38.241Z,20.80
2022-11-16T14:29:21.634Z,13.40
2022-11-16T14:31:54.286Z,10.70
2022-11-16T14:34:54.000Z,15.40
2022-11-16T14:37:22.740Z,8.00
2022-11-16T14:39:59.268Z,14.50
2022-11-16T14:42:48.448Z,17.40
2022-11-16T14:45:29.676Z,17.10
2022-11-16T14:48:14.310Z,19.70
2022-11-16T14:50:45.090Z,17.10
2022-11-16T14:53:18.454Z,21.70
2022-11-16T14:55:46.834Z,11.70
2022-11-16T14:58:23.604Z,13.70
2022-11-16T15:00:54.058Z,11.40
2022-11-16T15:03:24.101Z,10.40
2022-11-16T15:05:53.227Z,15.40
2022-11-16T15:08:26.847Z,17.60
2022-11-16T15:10:55.244Z,15.90
2022-11-16T15:13:25.203Z,15.10
2022-11-16T15:16:10.075Z,21.40
2022-11-16T15:18:38.419Z,15.60
2022-11-16T15:21:06.837Z,15.10
2022-11-16T15:24:02.083Z,10.90
2022-11-16T15:26:38.231Z,11.80
2022-11-16T15:29:06.672Z,18.00
2022-11-16T15:31:41.738Z,22.90
2022-11-16T15:34:18.806Z,11.50
2022-11-16T15:36:47.957Z,15.60
2022-11-16T15:39:22.582Z,16.30
2022-11-16T15:41:52.360Z,15.70
2022-11-16T15:44:25.182Z,16.40
2022-11-16T15:46:56.665Z,16.00
2022-11-16T15:49:40.466Z,14.90
2022-11-16T15:52:09.075Z,18.40
2022-11-16T15:54:55.815Z,15.70
2022-11-16T15:57:24.928Z,18.60
2022-11-16T15:59:58.057Z,20.60
2022-11-16T16:02:29.381Z,19.30
2022-11-16T16:04:57.686Z,20.50
2022-11-16T16:07:43.199Z,16.60
2022-11-16T16:10:13.858Z,20.90
2022-11-16T16:12:56.246Z,18.30
2022-11-16T16:15:40.336Z,17.60
2022-11-16T16:18:37.355Z,17.60
2022-11-16T16:21:08.587Z,18.20
2022-11-16T16:23:54.815Z,12.80
2022-11-16T16:26:23.853Z,21.40
2022-11-16T16:28:52.249Z,12.60
2022-11-16T16:31:20.382Z,23.00
2022-11-16T16:33:48.614Z,13.80
2022-11-16T16:36:17.252Z,16.70
2022-11-16T16:38:46.052Z,22.60
2022-11-16T16:41:24.325Z,18.30
2022-11-16T16:43:53.436Z,15.90
2022-11-16T16:46:22.422Z,11.30
2022-11-16T16:48:51.813Z,15.40
2022-11-16T16:51:20.387Z,16.00
2022-11-16T16:53:48.668Z,20.30
2022-11-16T16:56:18.469Z,23.90
2022-11-16T16:58:47.291Z,20.50
2022-11-16T17:01:16.549Z,17.00
2022-11-16T17:03:48.094Z,13.70
2022-11-16T17:06:16.360Z,20.80
2022-11-16T17:08:44.564Z,23.00
2022-11-16T17:11:15.751Z,16.00
2022-11-16T17:13:45.536Z,13.30
2022-11-16T17:16:14.424Z,15.00
2022-11-16T17:18:46.258Z,14.50
2022-11-16T17:21:15.003Z,13.50
2022-11-16T17:23:43.709Z,11.70
2022-11-16T17:26:12.343Z,13.40
2022-11-16T17:28:40.532Z,12.70
2022-11-16T17:31:11.513Z,10.80
2022-11-16T17:33:42.401Z,13.40
2022-11-16T17:36:12.989Z,13.30
2022-11-16T17:38:42.236Z,11.90
2022-11-16T17:41:18.546Z,12.60
2022-11-16T17:43:47.649Z,13.60
2022-11-16T17:46:18.196Z,15.50
2022-11-16T17:48:47.639Z,13.10
2022-11-16T17:51:18.317Z,13.70
2022-11-16T17:53:46.382Z,13.90
2022-11-16T17:56:16.916Z,11.60
2022-11-16T17:58:50.073Z,10.10
2022-11-16T18:01:18.839Z,9.30
2022-11-16T18:03:47.286Z,8.40
2022-11-16T18:06:18.431Z,13.90
2022-11-16T18:08:47.413Z,10.60
2022-11-16T18:11:22.548Z,13.50
2022-11-16T18:13:56.922Z,12.80
2022-11-16T18:16:30.859Z,14.20
2022-11-16T18:19:03.015Z,11.90
2022-11-16T18:21:38.852Z,10.60
2022-11-16T18:24:08.325Z,13.80
2022-11-16T18:26:37.226Z,13.00
2022-11-16T18:29:07.112Z,14.00
2022-11-16T18:31:36.214Z,15.10
2022-11-16T18:34:04.806Z,10.60
2022-11-16T18:36:32.894Z,9.70
2022-11-16T18:39:01.109Z,12.90
2022-11-16T18:41:30.393Z,9.00
2022-11-16T18:44:03.160Z,10.10
2022-11-16T18:46:34.866Z,10.50
2022-11-16T18:49:05.717Z,12.50
2022-11-16T18:51:36.696Z,9.50
2022-11-16T18:54:05.616Z,12.60
2022-11-16T18:56:35.194Z,10.50
2022-11-16T18:59:03.867Z,9.90
2022-11-16T19:01:36.812Z,8.00
2022-11-16T19:04:11.839Z,10.00
2022-11-16T19:06:40.684Z,15.80
2022-11-16T19:09:11.599Z,13.10
2022-11-16T19:11:40.315Z,8.80
2022-11-16T19:14:09.150Z,9.40
2022-11-16T19:16:43.408Z,10.90
2022-11-16T19:19:16.462Z,12.30
2022-11-16T19:21:44.765Z,14.70
2022-11-16T19:24:15.519Z,13.60
2022-11-16T19:26:43.576Z,9.10
2022-11-16T19:29:12.130Z,14.70
2022-11-16T19:31:42.362Z,14.10
2022-11-16T19:34:14.023Z,16.20
2022-11-16T19:36:42.947Z,14.80
2022-11-16T19:39:12.084Z,14.30
2022-11-16T19:41:40.759Z,19.60
2022-11-16T19:44:09.006Z,8.00
2022-11-16T19:46:37.537Z,9.60
2022-11-16T19:49:05.880Z,14.30
2022-11-16T19:51:34.641Z,10.00
2022-11-16T19:54:03.934Z,10.00
2022-11-16T19:56:32.395Z,10.10
2022-11-16T19:59:00.879Z,8.80
2022-11-16T20:01:29.766Z,9.80
2022-11-16T20:04:00.776Z,12.60
2022-11-16T20:06:33.687Z,11.80
2022-11-16T20:09:08.856Z,9.90
2022-11-16T20:11:46.099Z,10.80
2022-11-16T20:14:15.158Z,9.90
2022-11-16T20:16:47.104Z,11.60
2022-11-16T20:19:17.718Z,14.60
2022-11-16T20:21:47.026Z,19.30
2022-11-16T20:24:18.163Z,12.70
2022-11-16T20:26:48.626Z,12.20
2022-11-16T20:29:18.777Z,15.10
2022-11-16T20:31:47.465Z,19.90
2022-11-16T20:34:18.520Z,10.30
2022-11-16T20:36:49.974Z,12.10
2022-11-16T20:39:21.908Z,11.40
2022-11-16T20:41:50.286Z,13.20
2022-11-16T20:44:22.446Z,12.50
2022-11-16T20:46:54.989Z,13.10
2022-11-16T20:49:26.952Z,11.10
2022-11-16T20:51:56.588Z,14.50
2022-11-16T20:54:25.202Z,13.10
2022-11-16T20:56:53.939Z,12.00
2022-11-16T20:59:23.025Z,13.90
2022-11-16T21:01:54.509Z,10.00
2022-11-16T21:04:23.013Z,8.10
2022-11-16T21:06:51.509Z,11.60
2022-11-16T21:09:23.014Z,10.30
2022-11-16T21:12:11.300Z,11.20
2022-11-16T21:14:40.654Z,13.30
2022-11-16T21:17:17.138Z,9.40
2022-11-16T21:20:05.350Z,10.10
2022-11-16T21:22:34.810Z,10.10
2022-11-16T21:25:03.466Z,12.00
2022-11-16T21:27:33.933Z,12.00
2022-11-16T21:30:01.878Z,13.90
2022-11-16T21:32:29.888Z,11.10
2022-11-16T21:34:57.856Z,9.90
2022-11-16T21:37:25.837Z,12.10
2022-11-16T21:39:53.688Z,12.50
2022-11-16T21:42:21.621Z,10.00
2022-11-16T21:44:49.868Z,15.30
2022-11-16T21:47:20.823Z,16.20
2022-11-16T21:50:24.443Z,12.40
2022-11-16T21:52:37.488Z,12.20
2022-11-16T21:55:05.906Z,14.70
2022-11-16T21:57:34.160Z,13.40
2022-11-16T22:00:02.531Z,13.10
2022-11-16T22:02:39.432Z,10.50
2022-11-16T22:05:26.661Z,13.20
2022-11-16T22:07:54.756Z,14.90
2022-11-16T22:10:22.878Z,13.30
2022-11-16T22:12:51.225Z,14.30
2022-11-16T22:15:20.126Z,15.20
2022-11-16T22:17:48.612Z,9.90
2022-11-16T22:20:17.928Z,12.00
2022-11-16T22:22:46.271Z,12.00
2022-11-16T22:25:14.381Z,18.20
2022-11-16T22:28:05.947Z,17.80
2022-11-16T22:30:30.796Z,15.70
2022-11-16T22:32:58.711Z,15.00
2022-11-16T22:35:26.923Z,12.10
2022-11-16T22:37:56.051Z,13.50
2022-11-16T22:40:24.146Z,14.00
2022-11-16T22:42:53.497Z,15.60
2022-11-16T22:45:21.459Z,14.80
2022-11-16T22:47:55.053Z,15.70
2022-11-16T22:50:24.174Z,16.10
2022-11-16T22:52:52.252Z,16.90
2022-11-16T22:55:20.260Z,14.30
2022-11-16T22:57:48.214Z,13.70
2022-11-16T23:00:16.998Z,16.00
2022-11-16T23:02:44.873Z,13.50
2022-11-16T23:05:13.108Z,14.00
2022-11-16T23:07:43.905Z,11.20
2022-11-16T23:10:11.920Z,13.90
2022-11-16T23:12:58.509Z,14.20
2022-11-16T23:15:44.951Z,21.40
2022-11-16T23:18:12.979Z,14.30
2022-11-16T23:20:59.514Z,11.90
2022-11-16T23:23:45.888Z,13.20
2022-11-16T23:26:40.766Z,14.90
2022-11-16T23:29:10.892Z,13.80
2022-11-16T23:31:38.706Z,13.70
2022-11-16T23:34:06.732Z,13.50
2022-11-16T23:36:34.575Z,16.00
2022-11-16T23:39:02.394Z,15.50
2022-11-16T23:41:48.783Z,10.60
2022-11-16T23:44:16.889Z,11.60
2022-11-16T23:46:44.999Z,14.40
2022-11-16T23:49:12.801Z,14.70
2022-11-16T23:51:40.691Z,12.80
2022-11-16T23:54:08.512Z,12.60
2022-11-16T23:56:36.680Z,15.00
2022-11-16T23:59:04.553Z,13.10
